Time;durP1;ratioP1;P1;durP2;ratioP2;P2;SDS_P1;SDS_P2;PMS_P1;PMS_P2;Temp;Humidity;BMP_temperature;BMP_pressure;BME280_temperature;BME280_humidity;BME280_pressure;Samples;Min_cycle;Max_cycle;Signal;HPM_P1;HPM_P2
2023/08/26 00:00:44;;;;;;;0.75;0.75;;;;;;;;;;5065281;28;20102;-64
2023/08/26 00:03:10;;;;;;;0.93;0.93;;;;;;;;;;5064989;28;20481;-64
2023/08/26 00:05:36;;;;;;;0.65;0.65;;;;;;;;;;5064657;28;20039;-64
2023/08/26 00:08:02;;;;;;;0.60;0.60;;;;;;;;;;5064829;28;20127;-64
2023/08/26 00:10:28;;;;;;;0.52;0.52;;;;;;;;;;5065308;28;20116;-64
2023/08/26 00:12:54;;;;;;;0.40;0.40;;;;;;;;;;5065067;28;20036;-64
2023/08/26 00:15:20;;;;;;;0.70;0.70;;;;;;;;;;5065298;28;20083;-64
2023/08/26 00:17:46;;;;;;;1.88;0.65;;;;;;;;;;5065743;28;20044;-64
2023/08/26 00:20:12;;;;;;;0.90;0.70;;;;;;;;;;5063318;28;20044;-64
2023/08/26 00:22:39;;;;;;;0.47;0.47;;;;;;;;;;5065394;28;20374;-64
2023/08/26 00:25:06;;;;;;;0.60;0.60;;;;;;;;;;5064875;28;20044;-64
2023/08/26 00:27:32;;;;;;;0.60;0.60;;;;;;;;;;5056512;28;20470;-64
2023/08/26 00:29:58;;;;;;;0.60;0.60;;;;;;;;;;5065118;28;20044;-64
2023/08/26 00:32:24;;;;;;;0.50;0.50;;;;;;;;;;5062898;28;20040;-64
2023/08/26 00:34:50;;;;;;;0.68;0.60;;;;;;;;;;5064142;28;20044;-64
2023/08/26 00:37:16;;;;;;;0.73;0.73;;;;;;;;;;5064981;28;20052;-64
2023/08/26 00:39:42;;;;;;;0.82;0.80;;;;;;;;;;5064184;28;20044;-64
2023/08/26 00:42:08;;;;;;;0.80;0.80;;;;;;;;;;5064960;28;20048;-64
2023/08/26 00:44:34;;;;;;;0.60;0.55;;;;;;;;;;5064521;28;20048;-64
2023/08/26 00:47:00;;;;;;;0.50;0.50;;;;;;;;;;5063959;28;20472;-64
2023/08/26 00:49:27;;;;;;;0.82;0.75;;;;;;;;;;5064759;28;20063;-64
2023/08/26 00:51:54;;;;;;;0.40;0.40;;;;;;;;;;5064757;28;20044;-64
2023/08/26 00:54:20;;;;;;;0.50;0.50;;;;;;;;;;5063839;28;20078;-64
2023/08/26 00:56:46;;;;;;;0.90;0.90;;;;;;;;;;5064915;28;20589;-64
2023/08/26 00:59:12;;;;;;;1.20;0.70;;;;;;;;;;5064187;28;20052;-64
2023/08/26 01:01:38;;;;;;;0.68;0.60;;;;;;;;;;5063668;28;20048;-64
2023/08/26 01:04:04;;;;;;;0.35;0.35;;;;;;;;;;5063924;28;20055;-64
2023/08/26 01:06:30;;;;;;;0.40;0.40;;;;;;;;;;5064687;28;20059;-64
2023/08/26 01:08:56;;;;;;;0.57;0.57;;;;;;;;;;5063803;28;20040;-64
2023/08/26 01:11:35;;;;;;;0.50;0.47;;;;;;;;;;5063885;28;20408;-64
2023/08/26 01:14:07;;;;;;;0.68;0.52;;;;;;;;;;5063918;28;20052;-64
2023/08/26 01:16:33;;;;;;;;;;;;;;;;;;5064190;28;20503;-64
2023/08/26 01:18:59;;;;;;;0.73;0.60;;;;;;;;;;5064135;28;20019;-64
2023/08/26 01:21:31;;;;;;;0.98;0.90;;;;;;;;;;5064204;28;20032;-64
2023/08/26 01:23:57;;;;;;;;;;;;;;;;;;5064607;28;20563;-64
2023/08/26 01:26:23;;;;;;;1.00;0.90;;;;;;;;;;5064165;28;19956;-64
2023/08/26 01:28:49;;;;;;;0.90;0.70;;;;;;;;;;5064504;28;20050;-64
2023/08/26 01:31:15;;;;;;;0.80;0.80;;;;;;;;;;5063744;28;20044;-64
2023/08/26 01:33:53;;;;;;;0.60;0.60;;;;;;;;;;5062904;28;20396;-64
2023/08/26 01:36:22;;;;;;;0.90;0.77;;;;;;;;;;5063841;28;20694;-64
2023/08/26 01:38:49;;;;;;;1.17;0.80;;;;;;;;;;5064788;28;20333;-64
2023/08/26 01:41:17;;;;;;;0.63;0.63;;;;;;;;;;5064229;28;20088;-64
2023/08/26 01:43:44;;;;;;;0.63;0.63;;;;;;;;;;5063583;28;20059;-64
2023/08/26 01:46:10;;;;;;;1.52;0.80;;;;;;;;;;5063872;28;20048;-64
2023/08/26 01:48:36;;;;;;;0.80;0.68;;;;;;;;;;5064112;28;20048;-64
2023/08/26 01:51:02;;;;;;;1.05;0.95;;;;;;;;;;5063118;28;20044;-64
2023/08/26 01:53:28;;;;;;;0.50;0.50;;;;;;;;;;5063906;28;20044;-64
2023/08/26 01:55:54;;;;;;;0.40;0.40;;;;;;;;;;5063724;28;20063;-63
2023/08/26 01:58:20;;;;;;;0.40;0.40;;;;;;;;;;5063521;28;20044;-64
2023/08/26 02:00:46;;;;;;;0.73;0.60;;;;;;;;;;5064858;28;20485;-64
2023/08/26 02:03:12;;;;;;;0.60;0.60;;;;;;;;;;5063666;28;20051;-64
2023/08/26 02:05:38;;;;;;;0.70;0.70;;;;;;;;;;5063627;28;20040;-64
2023/08/26 02:08:04;;;;;;;1.35;0.77;;;;;;;;;;5063547;28;20549;-64
2023/08/26 02:10:30;;;;;;;0.70;0.60;;;;;;;;;;5064031;28;20499;-64
2023/08/26 02:12:56;;;;;;;0.50;0.50;;;;;;;;;;5063361;28;20751;-64
2023/08/26 02:15:22;;;;;;;1.00;0.77;;;;;;;;;;5062287;28;20068;-64
2023/08/26 02:17:48;;;;;;;0.70;0.70;;;;;;;;;;5064516;28;20048;-64
2023/08/26 02:20:14;;;;;;;1.55;0.70;;;;;;;;;;5063302;28;20040;-64
2023/08/26 02:22:40;;;;;;;0.93;0.80;;;;;;;;;;5065193;28;20036;-64
2023/08/26 02:25:07;;;;;;;0.90;0.77;;;;;;;;;;5068341;28;20089;-64
2023/08/26 02:27:33;;;;;;;0.75;0.70;;;;;;;;;;5068791;28;20048;-64
2023/08/26 02:29:59;;;;;;;0.75;0.75;;;;;;;;;;5068707;28;20048;-64
2023/08/26 02:32:25;;;;;;;0.80;0.80;;;;;;;;;;5066609;28;20040;-64
2023/08/26 02:34:51;;;;;;;0.77;0.77;;;;;;;;;;5067394;28;20408;-64
2023/08/26 02:37:17;;;;;;;1.08;0.98;;;;;;;;;;5067518;28;20052;-64
2023/08/26 02:39:45;;;;;;;1.42;0.80;;;;;;;;;;5058592;28;20047;-64
2023/08/26 02:42:11;;;;;;;1.00;0.90;;;;;;;;;;5066788;28;20052;-64
2023/08/26 02:44:37;;;;;;;1.20;1.10;;;;;;;;;;5067044;28;20044;-64
2023/08/26 02:47:03;;;;;;;1.30;1.20;;;;;;;;;;5066176;28;20051;-64
2023/08/26 02:49:29;;;;;;;0.80;0.80;;;;;;;;;;5066750;28;20492;-64
2023/08/26 02:51:55;;;;;;;0.98;0.98;;;;;;;;;;5066911;28;20041;-64
2023/08/26 02:54:21;;;;;;;0.90;0.90;;;;;;;;;;5065603;28;20047;-64
2023/08/26 02:56:47;;;;;;;1.13;1.10;;;;;;;;;;5067084;28;20397;-64
2023/08/26 02:59:13;;;;;;;1.08;0.95;;;;;;;;;;5066465;28;20052;-64
2023/08/26 03:01:40;;;;;;;0.80;0.80;;;;;;;;;;5064612;28;20052;-64
2023/08/26 03:04:06;;;;;;;1.10;1.00;;;;;;;;;;5066769;28;20041;-64
2023/08/26 03:06:32;;;;;;;1.10;1.00;;;;;;;;;;5066923;28;20037;-64
2023/08/26 03:08:58;;;;;;;0.95;0.95;;;;;;;;;;5066181;28;20036;-64
2023/08/26 03:11:24;;;;;;;1.17;1.08;;;;;;;;;;5066294;28;20361;-64
2023/08/26 03:13:51;;;;;;;0.90;0.90;;;;;;;;;;5067180;28;20040;-64
2023/08/26 03:16:17;;;;;;;0.90;0.90;;;;;;;;;;5065891;28;20436;-64
2023/08/26 03:18:43;;;;;;;0.88;0.88;;;;;;;;;;5065985;28;20508;-64
2023/08/26 03:21:09;;;;;;;1.17;1.10;;;;;;;;;;5065959;28;20052;-64
2023/08/26 03:23:35;;;;;;;0.90;0.90;;;;;;;;;;5064160;28;20684;-64
2023/08/26 03:26:02;;;;;;;0.70;0.70;;;;;;;;;;5065821;28;20052;-64
2023/08/26 03:28:28;;;;;;;0.60;0.60;;;;;;;;;;5065844;28;20045;-64
2023/08/26 03:30:54;;;;;;;0.88;0.88;;;;;;;;;;5066414;28;20040;-64
2023/08/26 03:33:21;;;;;;;0.85;0.70;;;;;;;;;;5066613;28;20385;-64
2023/08/26 03:35:47;;;;;;;1.52;0.60;;;;;;;;;;5065557;28;20400;-64
2023/08/26 03:38:13;;;;;;;0.80;0.80;;;;;;;;;;5065945;28;20037;-64
2023/08/26 03:40:42;;;;;;;0.60;0.60;;;;;;;;;;5066149;28;20138;-64
2023/08/26 03:43:08;;;;;;;1.00;0.60;;;;;;;;;;5064660;28;20823;-64
2023/08/26 03:45:34;;;;;;;0.70;0.70;;;;;;;;;;5065937;28;20056;-64
2023/08/26 03:48:00;;;;;;;0.73;0.70;;;;;;;;;;5065748;28;20044;-64
2023/08/26 03:50:26;;;;;;;0.55;0.55;;;;;;;;;;5065050;28;20090;-64
2023/08/26 03:52:52;;;;;;;0.60;0.60;;;;;;;;;;5065811;28;20112;-64
2023/08/26 03:55:18;;;;;;;0.50;0.50;;;;;;;;;;5065932;28;20060;-64
2023/08/26 03:57:44;;;;;;;0.40;0.40;;;;;;;;;;5064980;28;20044;-64
2023/08/26 04:00:11;;;;;;;0.60;0.60;;;;;;;;;;5065098;28;20432;-64
2023/08/26 04:02:37;;;;;;;0.60;0.60;;;;;;;;;;5066116;28;20051;-64
2023/08/26 04:05:03;;;;;;;0.55;0.55;;;;;;;;;;5063252;28;20036;-64
2023/08/26 04:07:30;;;;;;;0.40;0.40;;;;;;;;;;5065301;28;20040;-64
2023/08/26 04:09:56;;;;;;;0.70;0.50;;;;;;;;;;5065708;28;20120;-64
2023/08/26 04:12:22;;;;;;;0.63;0.50;;;;;;;;;;5064018;28;20075;-64
2023/08/26 04:14:48;;;;;;;0.43;0.40;;;;;;;;;;5065909;28;20492;-64
2023/08/26 04:17:14;;;;;;;0.93;0.60;;;;;;;;;;5064708;28;20060;-64
2023/08/26 04:19:40;;;;;;;0.68;0.40;;;;;;;;;;5064710;28;20041;-64
2023/08/26 04:22:07;;;;;;;0.40;0.40;;;;;;;;;;5064817;28;20185;-64
2023/08/26 04:24:33;;;;;;;0.68;0.68;;;;;;;;;;5065176;28;20036;-64
2023/08/26 04:26:59;;;;;;;1.02;0.65;;;;;;;;;;5064424;28;20524;-64
2023/08/26 04:29:25;;;;;;;0.65;0.47;;;;;;;;;;5064680;28;20714;-64
2023/08/26 04:31:51;;;;;;;0.50;0.50;;;;;;;;;;5064931;28;20036;-64
2023/08/26 04:34:18;;;;;;;0.50;0.50;;;;;;;;;;5065353;28;20479;-64
2023/08/26 04:36:44;;;;;;;0.50;0.50;;;;;;;;;;5065140;28;20639;-64
2023/08/26 04:39:13;;;;;;;0.95;0.60;;;;;;;;;;5063896;28;20048;-64
2023/08/26 04:41:40;;;;;;;0.65;0.60;;;;;;;;;;5064841;28;20037;-64
2023/08/26 04:44:09;;;;;;;0.60;0.60;;;;;;;;;;5064646;28;20051;-64
2023/08/26 04:46:35;;;;;;;0.52;0.52;;;;;;;;;;5064114;28;20064;-64
2023/08/26 04:49:01;;;;;;;1.35;0.73;;;;;;;;;;5063946;28;20147;-64
2023/08/26 04:51:27;;;;;;;0.55;0.50;;;;;;;;;;5064298;28;20204;-64
2023/08/26 04:53:53;;;;;;;0.50;0.50;;;;;;;;;;5063835;28;20493;-64
2023/08/26 04:56:19;;;;;;;0.50;0.50;;;;;;;;;;5064533;28;20064;-64
2023/08/26 04:58:45;;;;;;;0.50;0.50;;;;;;;;;;5064626;28;20045;-64
2023/08/26 05:01:11;;;;;;;0.73;0.60;;;;;;;;;;5063504;28;20125;-64
2023/08/26 05:03:37;;;;;;;0.50;0.50;;;;;;;;;;5064346;28;20629;-64
2023/08/26 05:06:03;;;;;;;0.50;0.50;;;;;;;;;;5063846;28;20036;-64
2023/08/26 05:08:30;;;;;;;0.38;0.38;;;;;;;;;;5064000;28;20098;-64
2023/08/26 05:10:56;;;;;;;0.75;0.55;;;;;;;;;;5064678;28;20048;-64
2023/08/26 05:13:22;;;;;;;0.50;0.50;;;;;;;;;;5064212;28;20047;-64
2023/08/26 05:15:48;;;;;;;0.57;0.57;;;;;;;;;;5064399;28;20071;-64
2023/08/26 05:18:15;;;;;;;1.70;0.65;;;;;;;;;;5064110;28;20420;-64
2023/08/26 05:20:44;;;;;;;0.60;0.60;;;;;;;;;;5064932;28;20051;-64
2023/08/26 05:23:11;;;;;;;1.02;0.80;;;;;;;;;;5064089;28;20083;-64
2023/08/26 05:25:37;;;;;;;0.40;0.40;;;;;;;;;;5064647;28;20169;-64
2023/08/26 05:28:04;;;;;;;0.40;0.40;;;;;;;;;;5063636;28;20109;-64
2023/08/26 05:30:30;;;;;;;0.47;0.47;;;;;;;;;;5064180;28;20101;-64
2023/08/26 05:32:56;;;;;;;0.95;0.50;;;;;;;;;;5064183;28;20044;-64
2023/08/26 05:35:22;;;;;;;0.40;0.40;;;;;;;;;;5063671;28;20036;-64
2023/08/26 05:37:48;;;;;;;0.38;0.38;;;;;;;;;;5064437;28;20047;-64
2023/08/26 05:40:16;;;;;;;0.40;0.40;;;;;;;;;;5063634;28;20049;-64
2023/08/26 05:42:42;;;;;;;0.60;0.57;;;;;;;;;;5063598;28;20480;-64
2023/08/26 05:45:08;;;;;;;0.52;0.35;;;;;;;;;;5063684;28;20042;-64
2023/08/26 05:47:35;;;;;;;0.30;0.30;;;;;;;;;;5063668;28;20094;-64
2023/08/26 05:50:01;;;;;;;0.32;0.32;;;;;;;;;;5063339;28;20123;-64
2023/08/26 05:52:27;;;;;;;0.30;0.30;;;;;;;;;;5064142;28;20569;-63
2023/08/26 05:54:53;;;;;;;0.40;0.40;;;;;;;;;;5064030;28;20443;-64
2023/08/26 05:57:19;;;;;;;0.35;0.35;;;;;;;;;;5063246;28;20076;-64
2023/08/26 05:59:45;;;;;;;0.30;0.30;;;;;;;;;;5067127;28;20048;-64
2023/08/26 06:02:11;;;;;;;0.32;0.32;;;;;;;;;;5067326;28;20563;-64
2023/08/26 06:04:37;;;;;;;0.63;0.30;;;;;;;;;;5067176;28;20051;-64
2023/08/26 06:07:03;;;;;;;0.30;0.30;;;;;;;;;;5067243;28;20040;-64
2023/08/26 06:09:29;;;;;;;0.40;0.40;;;;;;;;;;5067654;28;20503;-64
2023/08/26 06:11:55;;;;;;;0.50;0.50;;;;;;;;;;5067336;28;20040;-64
2023/08/26 06:14:21;;;;;;;0.50;0.50;;;;;;;;;;5067636;28;20052;-64
2023/08/26 06:16:48;;;;;;;0.45;0.40;;;;;;;;;;5068101;28;20388;-64
2023/08/26 06:19:14;;;;;;;0.40;0.40;;;;;;;;;;5066687;28;20270;-64
2023/08/26 06:21:40;;;;;;;0.43;0.43;;;;;;;;;;5067508;28;20048;-64
2023/08/26 06:24:07;;;;;;;0.40;0.40;;;;;;;;;;5066921;28;20044;-64
2023/08/26 06:26:33;;;;;;;0.55;0.32;;;;;;;;;;5066754;28;20658;-64
2023/08/26 06:28:59;;;;;;;0.40;0.40;;;;;;;;;;5067302;28;20047;-64
2023/08/26 06:31:25;;;;;;;1.13;0.50;;;;;;;;;;5066419;28;20052;-64
2023/08/26 06:33:51;;;;;;;0.30;0.30;;;;;;;;;;5067702;28;20539;-64
2023/08/26 06:36:17;;;;;;;0.65;0.30;;;;;;;;;;5067193;28;20416;-64
2023/08/26 06:38:43;;;;;;;0.30;0.25;;;;;;;;;;5066491;28;20527;-64
2023/08/26 06:41:09;;;;;;;0.30;0.20;;;;;;;;;;5066501;28;20045;-64
2023/08/26 06:43:35;;;;;;;0.40;0.30;;;;;;;;;;5066942;28;20036;-64
2023/08/26 06:46:01;;;;;;;0.43;0.30;;;;;;;;;;5066036;28;20507;-64
2023/08/26 06:48:27;;;;;;;0.50;0.30;;;;;;;;;;5067560;28;20047;-64
2023/08/26 06:50:53;;;;;;;0.20;0.20;;;;;;;;;;5067464;28;20036;-64
2023/08/26 06:53:22;;;;;;;0.40;0.20;;;;;;;;;;5066674;28;20054;-64
2023/08/26 06:55:49;;;;;;;0.20;0.20;;;;;;;;;;5067058;28;20599;-64
2023/08/26 06:58:15;;;;;;;0.47;0.40;;;;;;;;;;5066293;28;20500;-64
2023/08/26 07:00:41;;;;;;;0.30;0.30;;;;;;;;;;5065145;28;20128;-64
2023/08/26 07:03:08;;;;;;;0.30;0.30;;;;;;;;;;5066457;28;20044;-64
2023/08/26 07:05:34;;;;;;;0.20;0.20;;;;;;;;;;5066851;28;20040;-64
2023/08/26 07:08:00;;;;;;;0.25;0.25;;;;;;;;;;5065953;28;20040;-64
2023/08/26 07:10:26;;;;;;;0.60;0.40;;;;;;;;;;5064976;28;20125;-64
2023/08/26 07:12:52;;;;;;;0.35;0.35;;;;;;;;;;5066770;28;20044;-64
2023/08/26 07:15:18;;;;;;;0.40;0.40;;;;;;;;;;5065927;28;20036;-64
2023/08/26 07:17:44;;;;;;;0.40;0.40;;;;;;;;;;5066291;28;20049;-64
2023/08/26 07:20:10;;;;;;;0.80;0.50;;;;;;;;;;5065760;28;20118;-64
2023/08/26 07:22:37;;;;;;;0.43;0.43;;;;;;;;;;5066144;28;20454;-64
2023/08/26 07:25:03;;;;;;;0.35;0.35;;;;;;;;;;5066253;28;20040;-64
2023/08/26 07:27:29;;;;;;;1.65;0.57;;;;;;;;;;5066163;28;20496;-64
2023/08/26 07:29:55;;;;;;;1.42;1.20;;;;;;;;;;5066355;28;20032;-64
2023/08/26 07:32:21;;;;;;;1.95;1.77;;;;;;;;;;5066487;28;20039;-64
2023/08/26 07:34:50;;;;;;;2.08;1.60;;;;;;;;;;5066004;28;20044;-64
2023/08/26 07:37:16;;;;;;;0.77;0.77;;;;;;;;;;5065685;28;20066;-64
2023/08/26 07:39:42;;;;;;;2.03;1.92;;;;;;;;;;5065764;28;20484;-64
2023/08/26 07:42:08;;;;;;;2.97;2.38;;;;;;;;;;5065094;28;20043;-64
2023/08/26 07:44:34;;;;;;;2.50;2.30;;;;;;;;;;5065909;28;20044;-64
2023/08/26 07:47:00;;;;;;;2.95;2.75;;;;;;;;;;5065757;28;20036;-64
2023/08/26 07:49:26;;;;;;;3.45;3.15;;;;;;;;;;5065143;28;20048;-64
2023/08/26 07:51:52;;;;;;;2.60;2.40;;;;;;;;;;5066317;28;20066;-64
2023/08/26 07:54:18;;;;;;;5.43;2.92;;;;;;;;;;5065728;28;20101;-64
2023/08/26 07:56:44;;;;;;;3.47;3.17;;;;;;;;;;5064971;28;20048;-64
2023/08/26 07:59:10;;;;;;;2.95;2.75;;;;;;;;;;5047579;28;20075;-64
2023/08/26 08:01:36;;;;;;;5.45;4.50;;;;;;;;;;5065761;28;20068;-64
2023/08/26 08:04:02;;;;;;;3.33;3.13;;;;;;;;;;5064671;28;20045;-64
2023/08/26 08:06:28;;;;;;;3.72;3.42;;;;;;;;;;5065331;28;20121;-64
2023/08/26 08:08:54;;;;;;;3.70;3.40;;;;;;;;;;5065334;28;20071;-64
2023/08/26 08:11:20;;;;;;;5.68;5.18;;;;;;;;;;5064740;28;20091;-64
2023/08/26 08:13:46;;;;;;;3.80;3.50;;;;;;;;;;5065606;28;20036;-64
2023/08/26 08:16:12;;;;;;;4.00;3.63;;;;;;;;;;5064829;28;20079;-64
2023/08/26 08:18:38;;;;;;;5.72;5.07;;;;;;;;;;5065251;28;20029;-64
2023/08/26 08:21:04;;;;;;;3.67;3.38;;;;;;;;;;5064801;28;20409;-64
2023/08/26 08:23:30;;;;;;;3.13;2.92;;;;;;;;;;5065025;28;20036;-64
2023/08/26 08:25:56;;;;;;;7.65;4.28;;;;;;;;;;5064417;28;20040;-64
2023/08/26 08:28:22;;;;;;;3.58;3.30;;;;;;;;;;5065340;28;20454;-64
2023/08/26 08:30:49;;;;;;;2.88;2.67;;;;;;;;;;5065217;28;20820;-64
2023/08/26 08:33:14;;;;;;;5.90;5.32;;;;;;;;;;5064408;28;20049;-64
2023/08/26 08:35:40;;;;;;;5.25;4.90;;;;;;;;;;5064803;28;20040;-64
2023/08/26 08:38:06;;;;;;;4.88;4.38;;;;;;;;;;5063852;28;20037;-64
2023/08/26 08:40:32;;;;;;;3.10;2.90;;;;;;;;;;5064708;28;20554;-64
2023/08/26 08:42:59;;;;;;;4.43;4.03;;;;;;;;;;5065132;28;20372;-63
2023/08/26 08:45:26;;;;;;;5.38;4.38;;;;;;;;;;5063838;28;20121;-63
2023/08/26 08:47:53;;;;;;;5.28;4.88;;;;;;;;;;5065007;28;20033;-64
2023/08/26 08:50:20;;;;;;;3.85;2.80;;;;;;;;;;5064540;28;20603;-64
2023/08/26 08:52:48;;;;;;;4.43;4.03;;;;;;;;;;5063942;28;20087;-64
2023/08/26 08:55:14;;;;;;;2.72;2.53;;;;;;;;;;5064369;28;20056;-64
2023/08/26 08:57:40;;;;;;;4.38;3.92;;;;;;;;;;5064442;28;20088;-64
2023/08/26 09:00:07;;;;;;;3.42;3.15;;;;;;;;;;5063904;28;20046;-64
2023/08/26 09:02:36;;;;;;;4.07;3.67;;;;;;;;;;5064981;28;20061;-64
2023/08/26 09:05:02;;;;;;;4.03;3.70;;;;;;;;;;5064220;28;20101;-64
2023/08/26 09:07:29;;;;;;;3.45;2.97;;;;;;;;;;5063650;28;20052;-64
2023/08/26 09:09:57;;;;;;;3.00;2.70;;;;;;;;;;5064398;28;20040;-64
2023/08/26 09:12:23;;;;;;;3.00;2.47;;;;;;;;;;5064420;28;20135;-64
2023/08/26 09:14:49;;;;;;;6.45;5.25;;;;;;;;;;5064302;28;20776;-64
2023/08/26 09:17:16;;;;;;;5.47;5.07;;;;;;;;;;5055924;28;20673;-64
2023/08/26 09:19:53;;;;;;;5.03;3.88;;;;;;;;;;5064216;28;20040;-64
2023/08/26 09:22:20;;;;;;;4.63;4.22;;;;;;;;;;5055782;28;20072;-64
2023/08/26 09:24:46;;;;;;;3.55;3.25;;;;;;;;;;5064367;28;20131;-64
2023/08/26 09:27:16;;;;;;;2.38;2.28;;;;;;;;;;5063009;28;20381;-64
2023/08/26 09:29:42;;;;;;;5.18;4.68;;;;;;;;;;5062471;28;20055;-64
2023/08/26 09:32:08;;;;;;;2.97;2.78;;;;;;;;;;5063733;28;20046;-64
2023/08/26 09:34:34;;;;;;;4.05;2.80;;;;;;;;;;5062843;28;20036;-64
2023/08/26 09:37:00;;;;;;;4.07;1.77;;;;;;;;;;5063971;28;20492;-64
2023/08/26 09:39:27;;;;;;;1.38;1.27;;;;;;;;;;5063780;28;20487;-64
2023/08/26 09:41:56;;;;;;;1.20;1.10;;;;;;;;;;5063823;28;20119;-64
2023/08/26 09:44:23;;;;;;;1.85;1.75;;;;;;;;;;5064331;28;20048;-64
2023/08/26 09:46:49;;;;;;;1.17;1.08;;;;;;;;;;5064985;28;20044;-64
2023/08/26 09:49:16;;;;;;;1.02;0.95;;;;;;;;;;5063149;28;20047;-64
2023/08/26 09:51:50;;;;;;;1.33;1.23;;;;;;;;;;5064227;28;20078;-64
2023/08/26 09:54:17;;;;;;;8.68;1.10;;;;;;;;;;5063389;28;20037;-63
2023/08/26 09:56:43;;;;;;;1.50;1.40;;;;;;;;;;5063039;28;20915;-64
2023/08/26 09:59:09;;;;;;;4.05;2.70;;;;;;;;;;5063191;28;20048;-64
2023/08/26 10:01:35;;;;;;;4.25;3.90;;;;;;;;;;5063430;28;20127;-64
2023/08/26 10:04:10;;;;;;;4.13;3.80;;;;;;;;;;5063100;28;20075;-64
2023/08/26 10:06:55;;;;;;;3.88;3.50;;;;;;;;;;5064036;28;20040;-65
2023/08/26 10:09:24;;;;;;;1.80;1.70;;;;;;;;;;5056690;28;20051;-64
2023/08/26 10:11:52;;;;;;;1.38;1.20;;;;;;;;;;5064117;28;20539;-64
2023/08/26 10:14:19;;;;;;;0.90;0.73;;;;;;;;;;5063069;28;20041;-64
2023/08/26 10:16:45;;;;;;;2.00;0.77;;;;;;;;;;5063652;28;20036;-64
2023/08/26 10:19:12;;;;;;;0.65;0.50;;;;;;;;;;5063511;28;20044;-64
2023/08/26 10:21:38;;;;;;;0.85;0.50;;;;;;;;;;5063728;28;20568;-64
2023/08/26 10:24:05;;;;;;;0.80;0.30;;;;;;;;;;5062808;28;20066;-64
2023/08/26 10:26:31;;;;;;;0.52;0.32;;;;;;;;;;5063748;28;20686;-64
2023/08/26 10:28:57;;;;;;;0.50;0.35;;;;;;;;;;5063861;28;20052;-64
2023/08/26 10:31:32;;;;;;;0.73;0.60;;;;;;;;;;5062810;28;20045;-64
2023/08/26 10:34:13;;;;;;;1.52;0.70;;;;;;;;;;5063508;28;20110;-64
2023/08/26 10:36:40;;;;;;;0.47;0.30;;;;;;;;;;5055506;28;20040;-64
2023/08/26 10:39:14;;;;;;;1.02;0.68;;;;;;;;;;5062660;28;20067;-64
2023/08/26 10:41:40;;;;;;;0.68;0.65;;;;;;;;;;5055105;28;20051;-64
2023/08/26 10:44:06;;;;;;;1.17;0.63;;;;;;;;;;5063783;28;20044;-64
2023/08/26 10:46:33;;;;;;;0.70;0.60;;;;;;;;;;5066723;28;20045;-64
2023/08/26 10:49:00;;;;;;;0.50;0.50;;;;;;;;;;5066870;28;20040;-64
2023/08/26 10:51:26;;;;;;;0.95;0.65;;;;;;;;;;5066537;28;20036;-64
2023/08/26 10:53:53;;;;;;;0.60;0.60;;;;;;;;;;5067435;28;20036;-64
2023/08/26 10:56:21;;;;;;;1.35;0.90;;;;;;;;;;5067273;28;20063;-64
2023/08/26 10:58:48;;;;;;;2.10;0.90;;;;;;;;;;5066443;28;20044;-64
2023/08/26 11:01:15;;;;;;;1.20;0.70;;;;;;;;;;5066277;28;20144;-64
2023/08/26 11:03:44;;;;;;;0.80;0.65;;;;;;;;;;5066976;28;20041;-64
2023/08/26 11:06:13;;;;;;;1.00;0.65;;;;;;;;;;5065595;28;20443;-64
2023/08/26 11:08:39;;;;;;;1.23;0.75;;;;;;;;;;5066767;28;20052;-64
2023/08/26 11:11:05;;;;;;;1.17;0.80;;;;;;;;;;5066190;28;20048;-64
2023/08/26 11:13:32;;;;;;;0.85;0.80;;;;;;;;;;5065831;28;20131;-64
2023/08/26 11:15:58;;;;;;;0.75;0.55;;;;;;;;;;5066436;28;20488;-64
2023/08/26 11:18:25;;;;;;;0.80;0.80;;;;;;;;;;5066374;28;20076;-64
2023/08/26 11:20:51;;;;;;;0.68;0.60;;;;;;;;;;5066109;28;20040;-64
2023/08/26 11:23:17;;;;;;;0.30;0.30;;;;;;;;;;5066125;28;20654;-64
2023/08/26 11:25:43;;;;;;;0.60;0.50;;;;;;;;;;5066216;28;20581;-64
2023/08/26 11:28:14;;;;;;;1.17;0.82;;;;;;;;;;5065386;28;20051;-64
2023/08/26 11:30:45;;;;;;;2.15;1.23;;;;;;;;;;5066315;28;20059;-64
2023/08/26 11:33:15;;;;;;;1.27;1.15;;;;;;;;;;5065727;28;20036;-64
2023/08/26 11:35:45;;;;;;;1.23;1.02;;;;;;;;;;5066034;28;20032;-64
2023/08/26 11:38:11;;;;;;;1.80;1.27;;;;;;;;;;5065821;28;20041;-64
2023/08/26 11:40:38;;;;;;;1.73;1.40;;;;;;;;;;5066083;28;20174;-64
2023/08/26 11:43:11;;;;;;;1.92;1.50;;;;;;;;;;5065582;28;20041;-64
2023/08/26 11:45:38;;;;;;;1.50;1.40;;;;;;;;;;5064921;28;20048;-64
2023/08/26 11:48:04;;;;;;;1.25;1.10;;;;;;;;;;5065018;28;20515;-64
2023/08/26 11:50:32;;;;;;;2.35;1.20;;;;;;;;;;5066120;28;20049;-64
2023/08/26 11:53:01;;;;;;;2.38;2.17;;;;;;;;;;5064453;28;20032;-64
2023/08/26 11:55:28;;;;;;;1.52;1.20;;;;;;;;;;5064723;28;20053;-64
2023/08/26 11:57:54;;;;;;;1.30;1.20;;;;;;;;;;5065784;28;20153;-64
2023/08/26 12:00:20;;;;;;;1.20;1.15;;;;;;;;;;5065397;28;20047;-64
2023/08/26 12:02:46;;;;;;;1.30;1.20;;;;;;;;;;5065108;28;20048;-64
2023/08/26 12:05:16;;;;;;;1.60;1.50;;;;;;;;;;5064948;28;20052;-64
2023/08/26 12:07:45;;;;;;;1.48;0.80;;;;;;;;;;5065378;28;20075;-64
2023/08/26 12:10:12;;;;;;;0.75;0.75;;;;;;;;;;5056876;28;20036;-64
2023/08/26 12:12:38;;;;;;;0.85;0.80;;;;;;;;;;5063993;28;20044;-64
2023/08/26 12:15:05;;;;;;;1.13;0.60;;;;;;;;;;5064511;28;20508;-64
2023/08/26 12:17:31;;;;;;;1.35;0.50;;;;;;;;;;5064807;28;20032;-64
2023/08/26 12:19:57;;;;;;;0.65;0.60;;;;;;;;;;5065336;28;20072;-64
2023/08/26 12:22:23;;;;;;;0.60;0.47;;;;;;;;;;5065258;28;20060;-64
2023/08/26 12:24:49;;;;;;;1.08;0.50;;;;;;;;;;5063900;28;20044;-64
2023/08/26 12:27:15;;;;;;;0.60;0.43;;;;;;;;;;5065082;28;20041;-64
2023/08/26 12:29:41;;;;;;;0.63;0.32;;;;;;;;;;5064719;28;20048;-64
2023/08/26 12:32:07;;;;;;;0.73;0.47;;;;;;;;;;5064271;28;20157;-64
2023/08/26 12:34:34;;;;;;;1.95;0.52;;;;;;;;;;5064993;28;20571;-64
2023/08/26 12:37:00;;;;;;;1.10;0.55;;;;;;;;;;5064653;28;20099;-64
2023/08/26 12:39:26;;;;;;;0.70;0.43;;;;;;;;;;5064378;28;20081;-64
2023/08/26 12:41:52;;;;;;;1.02;0.43;;;;;;;;;;5064857;28;20040;-64
2023/08/26 12:44:19;;;;;;;0.70;0.45;;;;;;;;;;5063911;28;20047;-64
2023/08/26 12:46:45;;;;;;;1.20;0.60;;;;;;;;;;5056745;28;20609;-64
2023/08/26 12:49:11;;;;;;;1.58;0.70;;;;;;;;;;5064537;28;20048;-64
2023/08/26 12:51:37;;;;;;;1.92;0.93;;;;;;;;;;5064196;28;20060;-64
2023/08/26 12:54:03;;;;;;;0.55;0.55;;;;;;;;;;5064331;28;20044;-64
2023/08/26 12:56:29;;;;;;;1.00;0.90;;;;;;;;;;5064562;28;20134;-64
2023/08/26 12:58:55;;;;;;;0.68;0.65;;;;;;;;;;5063857;28;20430;-64
2023/08/26 13:01:21;;;;;;;0.57;0.35;;;;;;;;;;5064678;28;20056;-64
2023/08/26 13:03:47;;;;;;;0.57;0.40;;;;;;;;;;5064263;28;20097;-64
2023/08/26 13:06:14;;;;;;;0.85;0.60;;;;;;;;;;5063477;28;20331;-64
2023/08/26 13:08:40;;;;;;;0.38;0.38;;;;;;;;;;5064726;28;20047;-64
2023/08/26 13:11:06;;;;;;;1.08;0.60;;;;;;;;;;5063992;28;20510;-64
2023/08/26 13:13:32;;;;;;;1.00;0.70;;;;;;;;;;5064073;28;20036;-64
2023/08/26 13:15:58;;;;;;;0.35;0.30;;;;;;;;;;5064337;28;20133;-64
2023/08/26 13:18:25;;;;;;;0.70;0.40;;;;;;;;;;5064355;28;20051;-64
2023/08/26 13:20:51;;;;;;;0.63;0.50;;;;;;;;;;5061747;28;20044;-64
2023/08/26 13:23:17;;;;;;;0.55;0.38;;;;;;;;;;5055894;28;20040;-65
2023/08/26 13:25:43;;;;;;;0.82;0.40;;;;;;;;;;5057592;28;20073;-65
2023/08/26 13:28:09;;;;;;;0.52;0.43;;;;;;;;;;5060383;28;20044;-65
2023/08/26 13:30:35;;;;;;;0.32;0.30;;;;;;;;;;5064329;28;20037;-65
2023/08/26 13:33:01;;;;;;;0.52;0.47;;;;;;;;;;5063530;28;20045;-64
2023/08/26 13:35:27;;;;;;;1.50;0.60;;;;;;;;;;5063256;28;20076;-64
2023/08/26 13:37:53;;;;;;;0.98;0.52;;;;;;;;;;5064147;28;20044;-64
2023/08/26 13:40:19;;;;;;;2.03;0.63;;;;;;;;;;5061413;28;20048;-67
2023/08/26 13:42:47;;;;;;;0.68;0.43;;;;;;;;;;5061361;28;20073;-66
2023/08/26 13:45:13;;;;;;;0.40;0.30;;;;;;;;;;5058746;28;20449;-66
2023/08/26 13:47:39;;;;;;;0.73;0.73;;;;;;;;;;5063000;28;20130;-66
2023/08/26 13:50:06;;;;;;;1.45;0.75;;;;;;;;;;5062345;28;20044;-66
2023/08/26 13:52:32;;;;;;;1.02;0.50;;;;;;;;;;5059474;28;20048;-66
2023/08/26 13:54:58;;;;;;;0.47;0.32;;;;;;;;;;5062484;28;20056;-66
2023/08/26 13:57:24;;;;;;;0.40;0.30;;;;;;;;;;5063775;28;20069;-66
2023/08/26 13:59:51;;;;;;;0.93;0.50;;;;;;;;;;5064057;28;20045;-66
2023/08/26 14:02:17;;;;;;;0.60;0.30;;;;;;;;;;5054693;28;20067;-66
2023/08/26 14:04:43;;;;;;;0.40;0.30;;;;;;;;;;5061209;28;20056;-66
2023/08/26 14:07:09;;;;;;;0.35;0.25;;;;;;;;;;5057192;28;20036;-66
2023/08/26 14:09:35;;;;;;;0.30;0.20;;;;;;;;;;5060355;28;20493;-66
2023/08/26 14:12:02;;;;;;;0.40;0.40;;;;;;;;;;5056547;28;20055;-64
2023/08/26 14:14:28;;;;;;;0.65;0.47;;;;;;;;;;5059519;28;20428;-65
2023/08/26 14:16:54;;;;;;;1.48;0.20;;;;;;;;;;5063782;28;20052;-65
2023/08/26 14:19:20;;;;;;;0.32;0.32;;;;;;;;;;5057265;28;20048;-65
2023/08/26 14:21:46;;;;;;;1.33;0.40;;;;;;;;;;5060364;28;20181;-65
2023/08/26 14:24:12;;;;;;;0.85;0.50;;;;;;;;;;5057685;28;20132;-66
2023/08/26 14:26:39;;;;;;;0.50;0.40;;;;;;;;;;5058086;28;20119;-65
2023/08/26 14:29:05;;;;;;;1.65;0.70;;;;;;;;;;5054453;28;20094;-66
2023/08/26 14:31:31;;;;;;;0.47;0.40;;;;;;;;;;5050578;28;20475;-66
2023/08/26 14:33:57;;;;;;;0.68;0.43;;;;;;;;;;5062426;28;20071;-66
2023/08/26 14:36:23;;;;;;;0.50;0.40;;;;;;;;;;5064692;28;20041;-66
2023/08/26 14:38:49;;;;;;;0.63;0.63;;;;;;;;;;5054480;28;20739;-65